createdAt,value
2017-09-28T00:00:48.637Z,25.00
2017-09-28T00:03:18.477Z,28.07
2017-09-28T00:05:47.831Z,27.53
2017-09-28T00:08:16.886Z,26.93
2017-09-28T00:10:45.973Z,26.53
2017-09-28T00:22:24.385Z,24.97
2017-09-28T00:24:53.473Z,26.03
2017-09-28T00:27:22.537Z,27.23
2017-09-28T00:29:51.618Z,27.40
2017-09-28T00:32:20.685Z,27.60
2017-09-28T00:34:49.773Z,26.67
2017-09-28T00:37:18.861Z,26.63
2017-09-28T00:39:47.964Z,26.17
2017-09-28T00:42:17.105Z,26.43
2017-09-28T00:44:46.188Z,29.33
2017-09-28T00:47:16.055Z,27.53
2017-09-28T00:49:45.281Z,27.10
2017-09-28T00:52:14.397Z,25.57
2017-09-28T00:54:44.261Z,27.97
2017-09-28T00:57:13.426Z,25.50
2017-09-28T00:59:43.265Z,27.40
2017-09-28T01:02:12.340Z,27.97
2017-09-28T01:04:41.420Z,26.67
2017-09-28T01:07:11.236Z,26.37
2017-09-28T01:09:40.337Z,28.27
2017-09-28T01:12:09.414Z,28.00
2017-09-28T01:14:39.269Z,26.10
2017-09-28T01:17:08.359Z,23.90
2017-09-28T01:19:37.452Z,25.07
2017-09-28T01:22:06.866Z,25.33
2017-09-28T01:24:35.952Z,26.30
2017-09-28T01:27:05.018Z,26.20
2017-09-28T01:29:34.085Z,28.10
2017-09-28T01:32:03.172Z,27.97
2017-09-28T01:34:32.289Z,28.43
2017-09-28T01:37:02.112Z,29.30
2017-09-28T01:39:31.974Z,28.97
2017-09-28T01:42:01.036Z,28.40
2017-09-28T01:44:30.106Z,28.77
2017-09-28T01:47:00.301Z,28.50
2017-09-28T01:49:30.010Z,28.37
2017-09-28T01:51:59.302Z,29.17
2017-09-28T01:54:28.355Z,28.70
2017-09-28T01:56:57.432Z,28.90
2017-09-28T01:59:27.283Z,27.33
2017-09-28T02:01:56.368Z,28.70
2017-09-28T02:04:25.466Z,28.83
2017-09-28T02:06:54.584Z,28.57
2017-09-28T02:09:23.641Z,29.23
2017-09-28T02:11:53.737Z,29.40
2017-09-28T02:14:22.800Z,28.33
2017-09-28T02:16:51.885Z,29.00
2017-09-28T02:19:20.964Z,30.40
2017-09-28T02:21:50.062Z,28.70
2017-09-28T02:24:19.136Z,29.23
2017-09-28T02:26:48.219Z,28.20
2017-09-28T02:29:18.041Z,31.23
2017-09-28T02:31:47.106Z,28.57
2017-09-28T02:34:16.179Z,30.57
2017-09-28T02:36:45.234Z,28.80
2017-09-28T02:39:14.323Z,29.10
2017-09-28T02:41:43.409Z,31.20
2017-09-28T02:44:13.245Z,30.13
2017-09-28T02:46:42.313Z,30.70
2017-09-28T02:49:12.178Z,29.67
2017-09-28T02:51:41.985Z,29.43
2017-09-28T02:54:11.053Z,30.70
2017-09-28T02:56:40.116Z,27.93
2017-09-28T02:59:09.978Z,28.90
2017-09-28T03:01:39.128Z,28.70
2017-09-28T03:04:08.161Z,28.60
2017-09-28T03:06:37.230Z,30.30
2017-09-28T03:09:07.052Z,29.30
2017-09-28T03:11:36.161Z,30.63
2017-09-28T03:14:06.720Z,28.77
2017-09-28T03:16:35.766Z,30.80
2017-09-28T03:19:05.583Z,29.07
2017-09-28T03:21:34.665Z,29.23
2017-09-28T03:24:04.530Z,29.57
2017-09-28T03:26:33.973Z,28.80
2017-09-28T03:29:03.048Z,29.27
2017-09-28T03:31:32.114Z,28.40
2017-09-28T03:34:01.178Z,29.97
2017-09-28T03:36:30.991Z,28.00
2017-09-28T03:39:00.065Z,29.07
2017-09-28T03:41:29.144Z,32.23
2017-09-28T03:43:58.199Z,27.37
2017-09-28T03:46:27.280Z,29.27
2017-09-28T03:48:56.360Z,27.27
2017-09-28T03:51:26.217Z,30.67
2017-09-28T03:53:56.203Z,28.83
2017-09-28T03:56:25.260Z,28.07
2017-09-28T03:58:54.352Z,29.93
2017-09-28T04:01:23.420Z,28.07
2017-09-28T04:03:52.528Z,30.73
2017-09-28T04:06:21.582Z,28.50
2017-09-28T04:08:50.655Z,29.47
2017-09-28T04:11:20.495Z,30.97
2017-09-28T04:13:50.464Z,29.70
2017-09-28T04:16:19.568Z,28.47
2017-09-28T04:18:49.556Z,30.70
2017-09-28T04:21:18.634Z,28.63
2017-09-28T04:23:47.709Z,28.40
2017-09-28T04:26:16.783Z,29.03
2017-09-28T04:28:46.626Z,28.33
2017-09-28T04:31:15.668Z,28.27
2017-09-28T04:33:44.751Z,30.00
2017-09-28T04:36:13.852Z,29.70
2017-09-28T04:38:42.933Z,29.00
2017-09-28T04:41:12.120Z,30.40
2017-09-28T04:43:41.176Z,30.00
2017-09-28T04:46:10.991Z,28.30
2017-09-28T04:48:40.101Z,31.20
2017-09-28T04:51:09.269Z,29.87
2017-09-28T04:53:38.302Z,29.90
2017-09-28T04:56:07.669Z,30.07
2017-09-28T04:58:36.703Z,30.47
2017-09-28T05:01:05.812Z,29.10
2017-09-28T05:03:34.885Z,27.67
2017-09-28T05:06:03.959Z,30.87
2017-09-28T05:08:33.808Z,29.77
2017-09-28T05:11:02.897Z,30.77
2017-09-28T05:13:31.964Z,31.43
2017-09-28T05:16:01.840Z,29.53
2017-09-28T05:18:30.910Z,31.30
2017-09-28T05:20:59.963Z,31.00
2017-09-28T05:23:29.809Z,31.50
2017-09-28T05:25:58.875Z,32.20
2017-09-28T05:28:28.940Z,33.60
2017-09-28T05:30:58.009Z,32.73
2017-09-28T05:33:27.076Z,31.47
2017-09-28T05:35:56.926Z,32.60
2017-09-28T05:38:26.010Z,34.20
2017-09-28T05:40:55.097Z,34.70
2017-09-28T05:43:24.181Z,33.57
2017-09-28T05:45:54.014Z,32.50
2017-09-28T05:48:23.365Z,34.07
2017-09-28T05:50:52.489Z,30.63
2017-09-28T05:53:21.555Z,33.50
2017-09-28T05:55:50.637Z,33.97
2017-09-28T05:58:19.720Z,33.80
2017-09-28T06:00:48.805Z,33.47
2017-09-28T06:03:17.884Z,33.37
2017-09-28T06:05:46.941Z,34.60
2017-09-28T06:08:16.080Z,32.70
2017-09-28T06:10:45.138Z,33.10
2017-09-28T06:13:15.793Z,32.50
2017-09-28T06:15:45.620Z,33.03
2017-09-28T06:18:14.704Z,34.17
2017-09-28T06:20:44.549Z,31.40
2017-09-28T06:23:13.615Z,32.70
2017-09-28T06:25:42.720Z,31.40
2017-09-28T06:28:12.531Z,31.93
2017-09-28T06:30:41.620Z,31.67
2017-09-28T06:33:10.682Z,32.87
2017-09-28T06:35:39.752Z,33.37
2017-09-28T06:38:08.820Z,33.57
2017-09-28T06:40:38.287Z,31.90
2017-09-28T06:43:07.656Z,29.93
2017-09-28T06:45:36.721Z,30.63
2017-09-28T06:48:05.808Z,31.40
2017-09-28T06:50:34.892Z,31.30
2017-09-28T06:53:03.973Z,31.73
2017-09-28T06:55:33.813Z,30.77
2017-09-28T06:58:02.895Z,29.17
2017-09-28T07:00:31.972Z,31.57
2017-09-28T07:03:01.077Z,30.10
2017-09-28T07:05:30.920Z,30.73
2017-09-28T07:07:59.992Z,31.73
2017-09-28T07:10:29.850Z,30.80
2017-09-28T07:12:59.696Z,29.83
2017-09-28T07:15:28.771Z,31.47
2017-09-28T07:17:57.833Z,29.90
2017-09-28T07:20:26.939Z,31.23
2017-09-28T07:22:55.985Z,30.00
2017-09-28T07:25:25.823Z,30.20
2017-09-28T07:27:54.891Z,30.53
2017-09-28T07:30:23.953Z,29.43
2017-09-28T07:32:53.030Z,29.70
2017-09-28T07:35:22.124Z,32.00
2017-09-28T07:37:51.175Z,32.80
2017-09-28T07:40:20.249Z,33.20
2017-09-28T07:42:50.825Z,33.23
2017-09-28T07:45:19.908Z,30.90
2017-09-28T07:47:49.718Z,30.70
2017-09-28T07:50:19.544Z,31.13
2017-09-28T07:52:48.631Z,31.20
2017-09-28T07:55:18.664Z,30.70
2017-09-28T07:57:47.762Z,31.40
2017-09-28T08:00:16.819Z,31.30
2017-09-28T08:02:45.896Z,30.70
2017-09-28T08:05:15.740Z,31.03
2017-09-28T08:07:45.600Z,31.53
2017-09-28T08:10:14.656Z,28.67
2017-09-28T08:12:43.707Z,27.37
2017-09-28T08:15:12.810Z,29.27
2017-09-28T08:17:41.840Z,28.00
2017-09-28T08:20:10.943Z,26.43
2017-09-28T08:22:40.025Z,28.07
2017-09-28T08:25:09.998Z,26.77
2017-09-28T08:27:39.041Z,29.07
2017-09-28T08:30:08.103Z,27.97
2017-09-28T08:32:37.215Z,25.50
2017-09-28T08:35:06.272Z,25.00
2017-09-28T08:37:35.353Z,25.23
2017-09-28T08:40:04.413Z,24.70
2017-09-28T08:42:34.244Z,25.43
2017-09-28T08:45:03.341Z,27.30
2017-09-28T08:47:32.405Z,25.57
2017-09-28T08:50:02.261Z,23.97
2017-09-28T08:52:31.324Z,25.07
2017-09-28T08:55:01.153Z,23.97
2017-09-28T08:57:30.226Z,24.30
2017-09-28T09:00:00.093Z,22.60
2017-09-28T09:02:29.203Z,24.17
2017-09-28T09:04:58.261Z,22.87
2017-09-28T09:07:27.335Z,22.83
2017-09-28T09:09:57.150Z,24.03
2017-09-28T09:12:26.224Z,23.27
2017-09-28T09:14:55.288Z,22.27
2017-09-28T09:17:24.384Z,24.00
2017-09-28T09:19:53.466Z,22.93
2017-09-28T09:22:22.828Z,23.00
2017-09-28T09:24:52.680Z,23.77
2017-09-28T09:27:21.747Z,24.70
2017-09-28T09:29:51.622Z,23.53
2017-09-28T09:32:20.681Z,23.80
2017-09-28T09:34:49.768Z,22.97
2017-09-28T09:37:18.851Z,22.13
2017-09-28T09:39:47.897Z,24.63
2017-09-28T09:42:16.994Z,23.90
2017-09-28T09:44:46.067Z,21.93
2017-09-28T09:47:15.143Z,23.03
2017-09-28T09:49:44.212Z,24.80
2017-09-28T09:52:14.116Z,21.40
2017-09-28T09:54:43.179Z,20.30
2017-09-28T09:57:12.276Z,19.70
2017-09-28T09:59:41.379Z,20.23
2017-09-28T10:02:10.465Z,18.47
2017-09-28T10:04:39.551Z,18.00
2017-09-28T10:07:14.305Z,17.57
2017-09-28T10:09:50.867Z,17.47
2017-09-28T10:12:29.581Z,17.43
2017-09-28T10:15:05.579Z,16.20
2017-09-28T10:17:34.632Z,14.70
2017-09-28T10:20:03.706Z,13.43
2017-09-28T10:22:32.755Z,14.20
2017-09-28T10:25:02.637Z,13.90
2017-09-28T10:27:31.710Z,12.87
2017-09-28T10:30:00.801Z,12.93
2017-09-28T10:32:29.872Z,13.43
2017-09-28T10:34:59.724Z,12.53
2017-09-28T10:37:28.795Z,12.57
2017-09-28T10:39:57.881Z,11.63
2017-09-28T10:42:26.942Z,13.37
2017-09-28T10:44:56.045Z,12.20
2017-09-28T10:47:25.872Z,11.90
2017-09-28T10:49:55.747Z,12.80
2017-09-28T10:52:24.821Z,11.20
2017-09-28T10:54:53.881Z,10.67
2017-09-28T10:57:23.714Z,10.13
2017-09-28T10:59:52.772Z,10.83
2017-09-28T11:02:21.824Z,10.00
2017-09-28T11:04:50.897Z,9.10
2017-09-28T11:07:19.978Z,8.23
2017-09-28T11:09:49.649Z,7.87
2017-09-28T11:12:18.700Z,10.70
2017-09-28T11:14:47.767Z,7.87
2017-09-28T11:17:17.596Z,8.20
2017-09-28T11:19:46.690Z,8.93
2017-09-28T11:22:15.760Z,9.50
2017-09-28T11:24:45.627Z,9.60
2017-09-28T11:27:14.718Z,9.67
2017-09-28T11:29:43.814Z,8.37
2017-09-28T11:32:12.883Z,8.57
2017-09-28T11:34:41.923Z,7.80
2017-09-28T11:37:10.998Z,6.50
2017-09-28T11:39:40.057Z,6.70
2017-09-28T11:42:09.892Z,5.97
2017-09-28T11:44:39.043Z,6.80
2017-09-28T11:47:08.118Z,7.30
2017-09-28T11:49:37.296Z,7.37
2017-09-28T11:52:06.410Z,6.53
2017-09-28T11:54:35.774Z,7.80
2017-09-28T11:57:04.965Z,7.60
2017-09-28T11:59:34.050Z,7.77
2017-09-28T12:02:03.084Z,7.20
2017-09-28T12:04:32.161Z,7.60
2017-09-28T12:07:01.211Z,7.07
2017-09-28T12:09:30.282Z,7.30
2017-09-28T12:11:59.357Z,7.80
2017-09-28T12:14:28.426Z,8.40
2017-09-28T12:16:58.267Z,7.73
2017-09-28T12:19:27.369Z,8.17
2017-09-28T12:21:56.423Z,8.87
2017-09-28T12:24:26.254Z,8.60
2017-09-28T12:26:56.088Z,8.20
2017-09-28T12:29:25.149Z,8.13
2017-09-28T12:31:54.205Z,8.57
2017-09-28T12:34:23.284Z,8.57
2017-09-28T12:36:52.336Z,7.77
2017-09-28T12:39:21.421Z,7.67
2017-09-28T12:41:51.272Z,7.57
2017-09-28T12:44:20.343Z,7.43
2017-09-28T12:46:49.408Z,7.97
2017-09-28T12:49:18.459Z,9.50
2017-09-28T12:51:47.541Z,8.70
2017-09-28T12:54:16.601Z,8.93
2017-09-28T12:56:46.446Z,8.00
2017-09-28T12:59:15.522Z,8.40
2017-09-28T13:01:45.342Z,8.10
2017-09-28T13:04:14.519Z,7.97
2017-09-28T13:06:43.559Z,9.03
2017-09-28T13:09:12.636Z,8.37
2017-09-28T13:11:41.685Z,8.13
2017-09-28T13:14:10.789Z,8.70
2017-09-28T13:16:39.846Z,9.33
2017-09-28T13:19:08.924Z,8.50
2017-09-28T13:21:37.979Z,8.37
2017-09-28T13:24:07.042Z,9.03
2017-09-28T13:26:36.087Z,9.10
2017-09-28T13:29:05.157Z,9.00
2017-09-28T13:31:34.231Z,9.53
2017-09-28T13:34:03.316Z,9.07
2017-09-28T13:36:32.381Z,9.00
2017-09-28T13:39:01.469Z,9.80
2017-09-28T13:41:30.527Z,9.67
2017-09-28T13:43:59.603Z,9.90
2017-09-28T13:46:28.671Z,10.00
2017-09-28T13:48:57.810Z,9.60
2017-09-28T13:51:26.888Z,9.93
2017-09-28T13:53:56.920Z,11.70
2017-09-28T13:56:26.078Z,10.63
2017-09-28T13:58:55.132Z,8.87
2017-09-28T14:01:24.280Z,10.80
2017-09-28T14:03:53.373Z,10.37
2017-09-28T14:06:22.444Z,9.80
2017-09-28T14:08:51.577Z,9.40
2017-09-28T14:11:22.516Z,8.87
2017-09-28T14:13:51.675Z,9.57
2017-09-28T14:16:21.500Z,9.90
2017-09-28T14:18:50.578Z,8.73
2017-09-28T14:21:19.652Z,9.67
2017-09-28T14:23:50.964Z,10.17
2017-09-28T14:26:20.037Z,9.13
2017-09-28T14:28:49.774Z,8.73
2017-09-28T14:31:18.863Z,9.23
2017-09-28T14:33:47.921Z,9.13
2017-09-28T14:36:18.287Z,8.93
2017-09-28T14:38:47.340Z,8.73
2017-09-28T14:41:16.413Z,9.10
2017-09-28T14:43:46.224Z,8.13
2017-09-28T14:46:16.085Z,8.20
2017-09-28T14:48:45.125Z,9.90
2017-09-28T14:51:14.219Z,9.33
2017-09-28T14:53:43.319Z,9.00
2017-09-28T14:56:12.349Z,9.23
2017-09-28T14:58:41.430Z,9.93
2017-09-28T15:01:11.250Z,9.53
2017-09-28T15:03:40.422Z,9.37
2017-09-28T15:06:10.253Z,9.20
2017-09-28T15:08:39.335Z,8.13
2017-09-28T15:11:08.422Z,8.83
2017-09-28T15:13:37.514Z,9.40
2017-09-28T15:16:06.594Z,8.60
2017-09-28T15:18:35.640Z,9.27
2017-09-28T15:21:04.713Z,9.20
2017-09-28T15:23:34.622Z,8.50
2017-09-28T15:26:03.932Z,9.17
2017-09-28T15:28:33.783Z,8.37
2017-09-28T15:31:02.883Z,9.37
2017-09-28T15:33:31.925Z,8.40
2017-09-28T15:36:01.761Z,10.20
2017-09-28T15:38:31.631Z,8.43
2017-09-28T15:41:00.749Z,9.23
2017-09-28T15:43:30.621Z,8.83
2017-09-28T15:45:59.684Z,9.07
2017-09-28T15:48:28.772Z,7.77
2017-09-28T15:50:58.613Z,8.60
2017-09-28T15:53:27.662Z,8.20
2017-09-28T15:55:57.529Z,7.80
2017-09-28T15:58:27.149Z,8.70
2017-09-28T16:00:56.245Z,8.37
2017-09-28T16:03:25.305Z,8.30
2017-09-28T16:05:54.380Z,7.73
2017-09-28T16:08:24.240Z,9.10
2017-09-28T16:10:53.369Z,9.50
2017-09-28T16:13:22.432Z,10.50
2017-09-28T16:15:51.504Z,9.30
2017-09-28T16:18:20.635Z,9.93
2017-09-28T16:20:49.711Z,10.47
2017-09-28T16:23:19.115Z,9.37
2017-09-28T16:25:48.220Z,9.10
2017-09-28T16:28:17.273Z,10.20
2017-09-28T16:30:46.435Z,10.20
2017-09-28T16:33:15.521Z,8.20
2017-09-28T16:35:46.401Z,8.70
2017-09-28T16:38:16.211Z,9.50
2017-09-28T16:40:45.349Z,9.33
2017-09-28T16:43:15.211Z,8.57
2017-09-28T16:45:45.044Z,9.90
2017-09-28T16:48:14.125Z,9.13
2017-09-28T16:50:43.968Z,8.60
2017-09-28T16:53:13.057Z,8.83
2017-09-28T16:55:42.146Z,8.73
2017-09-28T16:58:11.243Z,9.87
2017-09-28T17:00:40.400Z,10.00
2017-09-28T17:03:09.477Z,11.57
2017-09-28T17:05:38.547Z,9.43
2017-09-28T17:08:07.628Z,10.33
2017-09-28T17:10:36.744Z,9.90
2017-09-28T17:13:05.817Z,9.63
2017-09-28T17:15:34.903Z,10.13
2017-09-28T17:18:04.022Z,9.53
2017-09-28T17:20:33.082Z,10.80
2017-09-28T17:23:02.978Z,10.30
2017-09-28T17:25:32.057Z,9.57
2017-09-28T17:28:01.164Z,10.37
2017-09-28T17:30:30.224Z,10.00
2017-09-28T17:32:59.333Z,10.43
2017-09-28T17:35:28.423Z,10.90
2017-09-28T17:37:57.572Z,11.27
2017-09-28T17:40:27.438Z,11.27
2017-09-28T17:42:56.513Z,10.50
2017-09-28T17:45:25.592Z,11.50
2017-09-28T17:47:54.683Z,10.90
2017-09-28T17:50:23.785Z,11.80
2017-09-28T17:52:52.847Z,12.03
2017-09-28T17:55:22.733Z,10.63
2017-09-28T17:57:52.350Z,11.50
2017-09-28T18:00:21.434Z,10.73
2017-09-28T18:02:50.518Z,11.50
2017-09-28T18:05:19.615Z,11.70
2017-09-28T18:07:49.873Z,10.90
2017-09-28T18:10:19.740Z,12.17
2017-09-28T18:12:48.845Z,11.53
2017-09-28T18:15:17.937Z,12.43
2017-09-28T18:17:47.039Z,13.63
2017-09-28T18:20:16.952Z,12.03
2017-09-28T18:22:46.025Z,12.17
2017-09-28T18:25:15.127Z,10.90
2017-09-28T18:27:44.205Z,12.10
2017-09-28T18:30:13.308Z,11.87
2017-09-28T18:32:43.136Z,11.17
2017-09-28T18:35:12.225Z,12.53
2017-09-28T18:37:42.368Z,12.27
2017-09-28T18:40:11.433Z,12.10
2017-09-28T18:42:40.677Z,12.20
2017-09-28T18:45:09.791Z,12.17
2017-09-28T18:47:38.845Z,12.17
2017-09-28T18:50:08.399Z,12.33
2017-09-28T18:52:37.483Z,13.50
2017-09-28T18:55:06.563Z,12.13
2017-09-28T18:57:35.698Z,12.53
2017-09-28T19:00:05.976Z,11.97
2017-09-28T19:02:35.071Z,12.33
2017-09-28T19:05:04.925Z,13.00
2017-09-28T19:07:34.790Z,11.67
2017-09-28T19:10:03.865Z,11.40
2017-09-28T19:12:32.960Z,12.67
2017-09-28T19:15:02.031Z,12.80
2017-09-28T19:17:31.855Z,13.37
2017-09-28T19:20:00.931Z,12.63
2017-09-28T19:22:30.751Z,12.93
2017-09-28T19:24:59.859Z,17.67
2017-09-28T19:27:29.011Z,13.43
2017-09-28T19:29:58.070Z,12.57
2017-09-28T19:32:27.157Z,13.50
2017-09-28T19:34:56.231Z,12.60
2017-09-28T19:37:26.102Z,13.07
2017-09-28T19:39:55.196Z,13.07
2017-09-28T19:42:24.830Z,13.63
2017-09-28T19:44:53.879Z,14.60
2017-09-28T19:47:22.990Z,13.73
2017-09-28T19:49:52.059Z,12.93
2017-09-28T19:52:21.293Z,12.67
2017-09-28T19:54:50.422Z,14.00
2017-09-28T19:57:19.555Z,13.03
2017-09-28T19:59:48.614Z,13.50
2017-09-28T20:02:18.468Z,14.40
2017-09-28T20:04:47.592Z,14.60
2017-09-28T20:07:16.644Z,15.10
2017-09-28T20:09:45.726Z,14.93
2017-09-28T20:12:14.836Z,14.23
2017-09-28T20:14:43.921Z,13.50
2017-09-28T20:17:13.805Z,14.40
2017-09-28T20:19:43.684Z,14.80
2017-09-28T20:22:12.761Z,13.57
2017-09-28T20:24:41.837Z,15.07
2017-09-28T20:27:10.921Z,14.77
2017-09-28T20:29:40.752Z,13.07
2017-09-28T20:32:09.849Z,13.80
2017-09-28T20:34:38.913Z,14.13
2017-09-28T20:37:08.748Z,15.50
2017-09-28T20:39:37.828Z,13.27
2017-09-28T20:42:07.684Z,14.10
2017-09-28T20:44:36.747Z,13.00
2017-09-28T20:47:05.829Z,13.67
2017-09-28T20:49:35.654Z,15.37
2017-09-28T20:52:04.756Z,12.83
2017-09-28T20:54:34.584Z,13.80
2017-09-28T20:57:03.696Z,13.77
2017-09-28T20:59:32.743Z,13.37
2017-09-28T21:02:02.593Z,14.07
2017-09-28T21:04:31.720Z,13.30
2017-09-28T21:07:00.781Z,13.77
2017-09-28T21:09:29.859Z,13.30
2017-09-28T21:11:58.977Z,13.27
2017-09-28T21:14:28.118Z,12.80
2017-09-28T21:16:57.144Z,12.90
2017-09-28T21:19:26.228Z,13.30
2017-09-28T21:21:56.042Z,13.10
2017-09-28T21:24:25.093Z,12.73
2017-09-28T21:26:54.194Z,13.70
2017-09-28T21:29:23.236Z,13.93
2017-09-28T21:31:52.357Z,12.70
2017-09-28T21:34:21.449Z,13.90
2017-09-28T21:36:51.282Z,14.57
2017-09-28T21:39:20.521Z,14.00
2017-09-28T21:41:50.344Z,14.07
2017-09-28T21:44:19.434Z,15.20
2017-09-28T21:46:49.252Z,13.60
2017-09-28T21:49:19.102Z,15.30
2017-09-28T21:51:49.282Z,14.20
2017-09-28T21:54:18.385Z,13.60
2017-09-28T21:56:47.463Z,16.80
2017-09-28T21:59:17.278Z,14.90
2017-09-28T22:01:47.133Z,15.27
2017-09-28T22:04:16.195Z,14.77
2017-09-28T22:06:46.059Z,16.10
2017-09-28T22:09:15.141Z,13.93
2017-09-28T22:11:44.228Z,14.43
2017-09-28T22:14:13.383Z,14.40
2017-09-28T22:16:42.434Z,14.50
2017-09-28T22:19:11.520Z,14.70
2017-09-28T22:21:40.572Z,14.20
2017-09-28T22:24:10.392Z,14.40
2017-09-28T22:26:39.509Z,13.60
2017-09-28T22:29:08.621Z,15.37
2017-09-28T22:31:37.709Z,16.23
2017-09-28T22:34:07.152Z,15.50
2017-09-28T22:36:36.223Z,14.47
2017-09-28T22:39:05.312Z,14.50
2017-09-28T22:41:34.401Z,15.40
2017-09-28T22:44:03.518Z,14.27
2017-09-28T22:46:32.601Z,15.03
2017-09-28T22:49:01.679Z,16.23
2017-09-28T22:51:30.744Z,17.27
2017-09-28T22:54:00.749Z,16.67
2017-09-28T22:56:29.826Z,17.50
2017-09-28T22:58:58.915Z,15.97
2017-09-28T23:01:27.993Z,16.33
2017-09-28T23:03:57.072Z,16.73
2017-09-28T23:06:26.124Z,18.63
2017-09-28T23:08:55.233Z,19.30
2017-09-28T23:11:25.082Z,15.90
2017-09-28T23:13:54.153Z,16.70
2017-09-28T23:16:23.333Z,16.97
2017-09-28T23:18:52.420Z,17.30
2017-09-28T23:21:21.469Z,17.30
2017-09-28T23:23:50.537Z,16.70
2017-09-28T23:26:19.605Z,17.07
2017-09-28T23:28:49.455Z,19.17
2017-09-28T23:31:18.544Z,17.00
2017-09-28T23:33:47.633Z,18.03
2017-09-28T23:36:16.744Z,16.57
2017-09-28T23:38:45.833Z,16.50
2017-09-28T23:41:14.912Z,15.33
2017-09-28T23:43:44.736Z,17.10
2017-09-28T23:46:13.973Z,17.13
2017-09-28T23:48:43.048Z,15.50
2017-09-28T23:51:12.900Z,15.57
2017-09-28T23:53:41.993Z,16.70
2017-09-28T23:56:11.078Z,16.33
2017-09-28T23:58:40.160Z,15.97
